DAAT/TMR METAR and TAF weather

Enter ICAO airport designator
Station Type Date Time Source
DAAT METAR 2021/04/14 21:00 UTC NOAA

DAAT 142100Z 26004KT 9999 FEW046 26/M08 Q1020


Station Type Date Time Source
DAAT Decoded METAR 2021/04/14 21:00 UTC NOAA

Tamanrasset / Aguenna, Algeria (DAAT) 22-49N 005-28E
Apr 14, 2021 - 05:00 PM EDT / 2021.04.14 2100 UTC
Wind: from the W (260 degrees) at 5 MPH (4 KT):0
Visibility: greater than 7 mile(s):0
Sky conditions: mostly clear
Temperature: 78 F (26 C)
Dew Point: 17 F (-8 C)
Relative Humidity: 9%
Pressure (altimeter): 30.12 in. Hg (1020 hPa)
ob: DAAT 142100Z 26004KT 9999 FEW046 26/M08 Q1020
cycle: 21

Station Type Date Time Source
DAAT TAF 2021/04/14 18:33 UTC NOAA

TAF DAAT 141700Z 1418/1518 28010KT 9999 SCT046
BECMG 1420/1423 04008KT
BECMG 1507/1510 22014KT
TEMPO 1509/1516 22015G30KT

Example: see airport list